Latest Weather Observations for Rolleston Airport

IDQ60801

Issued at 11:02 pm EST Friday 15 November 2019 (issued every 10 minutes, with the page automatically refreshed every 10 minutes)

About weather observations | Map of weather stations | Latest weather observations for QLD | Other Formats
Station Details ID: 035129 Name: ROLLESTON AIRPORT Lat: -24.46 Lon: 148.63 Height: 219.45 m
Data from the previous 72 hours. | See also: Recent months at Rolleston Airport
Date/Time
EST
Temp
°C
App
Temp
°C
Dew
Point
°C
Rel
Hum
%
Delta-T
°C
Wind Press
QNH
hPa
Press
MSL
hPa
Rain since
9am
mm
Dir  Spd
km/h
Gust
km/h
Spd
kts
Gust
kts
15/11:00pm 25.9 24.1 14.4 49 6.9 N 17 24 9 13 1013.3 1012.1 0.0
15/10:30pm 26.3 24.3 13.8 46 7.5 NNE 17 24 9 13 1013.3 1012.1 0.0
15/10:00pm 26.6 24.5 13.7 45 7.7 NNE 17 22 9 12 1013.2 1011.9 0.0
15/09:30pm 27.3 23.4 13.3 42 8.3 NNE 26 37 14 20 1013.1 1011.8 0.0
15/09:00pm 28.1 24.7 13.6 41 8.7 NNE 24 33 13 18 1012.9 1011.6 0.0
15/08:30pm 29.4 25.9 12.3 34 10.1 NNE 22 32 12 17 1012.4 1011.1 0.0
15/08:00pm 29.9 27.1 11.4 32 10.8 NE 17 24 9 13 1011.9 1010.6 0.0
15/07:30pm 30.8 27.8 10.7 29 11.6 NE 17 22 9 12 1011.2 1010.0 0.0
15/07:00pm 31.8 28.8 10.5 27 12.4 ENE 17 22 9 12 1010.8 1009.6 0.0
15/06:30pm 32.7 28.8 9.5 24 13.3 NE 20 28 11 15 1010.4 1009.2 0.0
15/06:00pm 34.8 33.1 8.5 20 15.0 N 7 9 4 5 1009.8 1008.6 0.0
15/05:30pm 35.2 32.3 8.1 19 15.4 N 13 19 7 10 1009.4 1008.2 0.0
15/05:00pm 35.6 32.2 7.6 18 15.8 N 15 22 8 12 1009.5 1008.3 0.0
15/04:30pm 35.5 33.2 9.1 20 15.2 N 11 20 6 11 1009.4 1008.2 0.0
15/04:00pm 35.5 32.5 9.1 20 15.2 NW 15 24 8 13 1009.5 1008.3 0.0
15/03:30pm 35.5 32.8 9.1 20 15.2 NNW 13 32 7 17 1009.5 1008.3 0.0
15/03:00pm 37.1 33.8 9.6 19 16.1 N 17 28 9 15 1009.6 1008.4 0.0
15/02:30pm 36.8 34.3 10.9 21 15.4 NW 15 30 8 16 1010.1 1008.9 0.0
15/02:00pm 34.5 32.2 10.4 23 14.1 NNE 13 24 7 13 1010.6 1009.4 0.0
15/01:30pm 35.5 32.8 10.5 22 14.7 N 15 28 8 15 1011.1 1009.9 0.0
15/01:00pm 35.7 34.1 11.4 23 14.5 N 11 24 6 13 1011.7 1010.5 0.0
15/12:30pm 34.3 32.1 10.8 24 13.8 NNE 13 20 7 11 1012.4 1011.1 0.0
15/12:00pm 34.0 32.1 10.6 24 13.7 NW 11 22 6 12 1012.6 1011.3 0.0
15/11:30am 32.9 31.3 11.4 27 12.7 NE 11 24 6 13 1013.1 1011.8 0.0
15/11:00am 31.9 30.6 11.1 28 12.2 NNE 9 20 5 11 1013.8 1012.6 0.0
15/10:30am 31.1 30.2 11.5 30 11.5 ENE 7 17 4 9 1014.2 1013.0 0.0
15/10:00am 29.8 28.8 10.9 31 10.9 NE 7 15 4 8 1014.6 1013.4 0.0
15/09:30am 29.4 29.2 11.9 34 10.3 WNW 4 7 2 4 1014.9 1013.7 0.0
15/09:00am 27.9 27.6 12.7 39 9.0 NNW 6 7 3 4 1015.2 1014.0 0.0
15/08:30am 27.2 26.8 12.4 40 8.7 SE 6 11 3 6 1015.2 1014.0 0.0
15/08:00am 26.2 25.9 10.0 36 9.1 SE 2 7 1 4 1015.1 1013.9 0.0
15/07:30am 24.6 22.4 7.7 34 9.0 SSE 9 13 5 7 1014.9 1013.7 0.0
15/07:00am 23.0 19.9 1.4 24 10.2 SSE 7 9 4 5 1014.7 1013.5 0.0
15/06:30am 21.0 18.6 -0.3 24 9.5 S 2 4 1 2 1014.7 1013.5 0.0
15/06:00am 19.5 17.1 0.0 27 8.7 S 2 4 1 2 1014.5 1013.3 0.0
15/05:30am 18.6 15.5 0.2 29 8.2 SSE 6 6 3 3 1014.1 1012.9 0.0
15/05:00am 18.9 15.8 0.0 28 8.4 SSE 6 6 3 3 1013.7 1012.5 0.0
15/04:30am 19.3 16.6 0.4 28 8.5 SSE 4 6 2 3 1013.5 1012.3 0.0
15/04:00am 18.7 16.5 0.8 30 8.0 SW 2 6 1 3 1013.2 1011.9 0.0
15/03:30am 19.2 16.9 0.3 28 8.4 S 2 4 1 2 1013.1 1011.8 0.0
15/03:00am 19.8 17.2 0.8 28 8.6 SSE 4 6 2 3 1013.0 1011.7 0.0
15/02:30am 20.1 17.1 0.5 27 8.9 S 6 7 3 4 1012.9 1011.6 0.0
15/02:00am 19.2 17.0 0.8 29 8.3 SSW 2 6 1 3 1013.0 1011.7 0.0
15/01:30am 19.0 16.3 0.1 28 8.4 SSW 4 6 2 3 1012.8 1011.5 0.0
15/01:00am 20.6 17.6 1.0 27 9.0 SSE 6 6 3 3 1012.7 1011.4 0.0
15/12:30am 20.4 17.3 0.3 26 9.1 S 6 7 3 4 1013.0 1011.7 0.0
15/12:00am 21.6 19.7 0.8 25 9.6 CALM 0 2 0 1 1013.2 1011.9 0.0
 
Date/Time
EST
Temp
°C
App
Temp
°C
Dew
Point
°C
Rel
Hum
%
Delta-T
°C
Wind Press
QNH
hPa
Press
MSL
hPa
Rain since
9am
mm
Dir  Spd
km/h
Gust
km/h
Spd
kts
Gust
kts
14/11:30pm 21.8 18.5 -0.2 23 9.9 SSE 7 9 4 5 1013.2 1011.9 0.0
14/11:00pm 22.9 18.8 0.1 22 10.5 SE 11 15 6 8 1013.2 1011.9 0.0
14/10:30pm 23.5 20.6 1.2 23 10.5 SE 6 9 3 5 1013.2 1011.9 0.0
14/10:00pm 23.3 20.1 -0.2 21 10.8 SSE 6 7 3 4 1012.7 1011.4 0.0
14/09:30pm 24.5 21.1 -0.6 19 11.5 SE 7 7 4 4 1012.5 1011.2 0.0
14/09:00pm 26.5 22.9 -2.2 15 13.0 E 7 9 4 5 1012.3 1011.0 0.0
14/08:30pm 29.1 24.7 -2.1 13 14.4 E 11 13 6 7 1012.1 1010.8 0.0
14/08:00pm 27.3 23.9 -0.7 16 13.1 ESE 7 9 4 5 1012.1 1010.8 0.0
14/07:30pm 28.9 25.5 -0.3 15 13.9 SE 7 7 4 4 1011.9 1010.6 0.0
14/07:00pm 30.0 26.8 -0.4 14 14.6 SE 6 6 3 3 1011.6 1010.4 0.0
14/06:30pm 31.2 28.0 -0.5 13 15.3 SSE 6 6 3 3 1011.2 1010.0 0.0
14/06:00pm 33.2 30.7 -1.2 11 16.6 SSW 2 6 1 3 1011.1 1009.9 0.0
14/05:30pm 33.7 30.7 -2.1 10 17.1 S 4 9 2 5 1010.9 1009.7 0.0
14/05:00pm 34.3 31.1 -0.4 11 17.1 SSE 6 11 3 6 1010.8 1009.6 0.0
14/04:30pm 33.8 30.0 -0.7 11 16.9 S 9 13 5 7 1010.8 1009.6 0.0
14/04:00pm 34.3 31.1 -0.4 11 17.1 SSW 6 15 3 8 1010.9 1009.7 0.0
14/03:30pm 34.1 30.2 -1.8 10 17.3 SSE 9 22 5 12 1011.2 1010.0 0.0
14/03:00pm 34.3 30.8 -1.7 10 17.4 WSW 7 19 4 10 1011.4 1010.2 0.0
14/02:30pm 34.3 30.6 -3.1 9 17.6 SE 7 13 4 7 1011.7 1010.5 0.0
14/02:00pm 33.4 28.7 -5.3 8 17.5 SSE 11 20 6 11 1012.3 1011.0 0.0
14/01:30pm 32.8 27.6 -5.7 8 17.2 SSE 13 32 7 17 1012.8 1011.5 0.0
14/01:00pm 33.3 28.9 -5.4 8 17.5 SSE 9 19 5 10 1013.3 1012.1 0.0
14/12:30pm 31.6 26.4 -6.6 8 16.7 SSE 13 26 7 14 1013.9 1012.7 0.0
14/12:00pm 31.1 25.4 -7.0 8 16.4 SSE 15 24 8 13 1014.3 1013.1 0.0
14/11:30am 30.3 24.6 -7.6 8 16.1 SSE 15 28 8 15 1014.9 1013.7 0.0
14/11:00am 30.0 23.5 -7.8 8 15.9 ESE 19 28 10 15 1015.4 1014.2 0.0
14/10:30am 29.1 22.9 -8.5 8 15.5 SE 17 30 9 16 1015.8 1014.6 0.0
14/10:00am 27.8 21.7 -7.9 9 14.7 S 17 28 9 15 1016.2 1015.0 0.0
14/09:30am 27.4 21.4 -6.9 10 14.3 SE 17 30 9 16 1016.4 1015.2 0.0
14/09:00am 25.9 19.2 -8.0 10 13.7 SSE 20 32 11 17 1016.8 1015.5 0.0
14/08:30am 24.9 18.4 -7.5 11 13.1 SSE 19 30 10 16 1016.9 1015.6 0.0
14/08:00am 24.2 16.7 -8.1 11 12.8 SSE 24 35 13 19 1017.0 1015.7 0.0
14/07:30am 23.1 15.7 -7.8 12 12.2 SSE 24 33 13 18 1017.0 1015.7 0.0
14/07:00am 22.7 16.5 -9.2 11 12.2 S 17 26 9 14 1016.7 1015.4 0.0
14/06:30am 21.1 16.3 -5.7 16 10.8 SSE 11 15 6 8 1016.2 1015.0 0.0
14/06:00am 18.7 14.6 -3.4 22 9.1 SSE 9 11 5 6 1015.7 1014.5 0.0
14/05:30am 16.9 12.8 -2.7 26 8.1 SSE 9 9 5 5 1015.2 1014.0 0.0
14/05:00am 16.4 12.8 -2.1 28 7.7 SSE 7 9 4 5 1014.9 1013.7 0.0
14/04:30am 16.4 13.0 -1.7 29 7.6 SSE 6 7 3 4 1014.5 1013.3 0.0
14/04:00am 16.9 13.5 -1.7 28 7.8 SSE 6 7 3 4 1014.2 1013.0 0.0
14/03:30am 17.9 14.4 -1.3 27 8.2 SSE 7 9 4 5 1013.9 1012.7 0.0
14/03:00am 17.9 14.0 -1.3 27 8.2 SSE 9 9 5 5 1013.7 1012.5 0.0
14/02:30am 18.7 15.2 -1.7 25 8.7 SSE 7 9 4 5 1013.6 1012.4 0.0
14/02:00am 19.1 15.3 -0.8 26 8.7 SSE 9 11 5 6 1013.4 1012.2 0.0
14/01:30am 19.3 15.5 -0.7 26 8.8 SSE 9 11 5 6 1013.5 1012.3 0.0
14/01:00am 21.0 17.3 -0.3 24 9.5 SSE 9 11 5 6 1013.5 1012.3 0.0
14/12:30am 21.0 17.2 -0.9 23 9.7 SE 9 11 5 6 1013.8 1012.6 0.0
14/12:00am 23.0 18.4 -4.1 16 11.5 SSE 11 13 6 7 1013.7 1012.5 0.0
 
Date/Time
EST
Temp
°C
App
Temp
°C
Dew
Point
°C
Rel
Hum
%
Delta-T
°C
Wind Press
QNH
hPa
Press
MSL
hPa
Rain since
9am
mm
Dir  Spd
km/h
Gust
km/h
Spd
kts
Gust
kts
13/11:30pm 25.3 20.6 -5.1 13 12.9 SSE 11 19 6 10 1013.5 1012.3 0.0
13/11:00pm 25.1 20.6 -3.3 15 12.4 S 11 19 6 10 1013.4 1012.2 0.0
13/10:30pm 25.8 21.4 0.5 19 11.9 S 13 20 7 11 1013.3 1012.1 0.0
13/10:00pm 26.5 22.3 3.7 23 11.5 S 15 20 8 11 1013.2 1011.9 0.0
13/09:30pm 26.8 24.0 8.7 32 9.9 S 13 17 7 9 1012.9 1011.6 0.0
13/09:00pm 26.2 23.5 10.4 37 8.9 SSE 15 20 8 11 1012.8 1011.5 0.0
13/08:30pm 26.5 24.2 11.8 40 8.5 SSE 15 20 8 11 1011.9 1010.6 0.0
13/08:00pm 27.1 24.6 11.2 37 9.1 SSE 15 22 8 12 1011.1 1009.9 0.0
13/07:30pm 27.7 24.9 10.0 33 10.0 SE 15 20 8 11 1010.6 1009.4 0.0
13/07:00pm 28.7 25.1 9.9 31 10.7 SSE 19 28 10 15 1010.3 1009.1 0.0
13/06:30pm 29.8 26.8 9.3 28 11.6 SSE 15 26 8 14 1009.9 1008.7 0.0
13/06:00pm 31.4 27.2 8.4 24 12.9 S 20 32 11 17 1009.4 1008.2 0.0
13/05:30pm 32.8 28.8 8.3 22 13.8 SSW 19 37 10 20 1009.2 1008.0 0.0
13/05:00pm 36.7 31.6 5.9 15 17.0 NW 22 30 12 16 1008.1 1006.8 0.0
13/04:30pm 37.2 32.7 6.3 15 17.2 NW 19 30 10 16 1008.0 1006.7 0.0
13/04:00pm 37.4 33.7 6.4 15 17.3 NW 15 24 8 13 1007.9 1006.6 0.0
13/03:30pm 37.3 33.2 6.3 15 17.3 NW 17 35 9 19 1008.4 1007.1 0.0
13/03:00pm 36.9 32.2 6.0 15 17.1 W 20 39 11 21 1008.9 1007.6 0.0
13/02:30pm 37.2 32.7 6.3 15 17.2 WNW 19 30 10 16 1009.5 1008.3 0.0
13/02:00pm 36.4 32.4 6.6 16 16.6 W 17 37 9 20 1010.0 1008.8 0.0
13/01:30pm 35.5 31.3 5.8 16 16.3 WNW 17 30 9 16 1010.6 1009.4 0.0
13/01:00pm 35.3 30.9 6.6 17 15.9 WNW 19 32 10 17 1011.3 1010.1 0.0
13/12:30pm 35.2 31.3 7.3 18 15.6 W 17 32 9 17 1012.0 1010.7 0.0
13/12:00pm 34.0 32.0 8.6 21 14.4 NNW 9 17 5 9 1012.6 1011.3 0.0
13/11:30am 32.6 30.6 8.8 23 13.5 N 9 20 5 11 1013.2 1011.9 0.0
13/11:00am 33.4 30.8 9.4 23 13.8 NNW 13 24 7 13 1013.7 1012.5 0.0
13/10:30am 31.4 29.5 9.0 25 12.7 N 9 20 5 11 1014.3 1013.1 0.0
13/10:00am 29.5 27.6 9.1 28 11.4 N 9 17 5 9 1014.8 1013.6 0.0
13/09:30am 29.3 27.8 10.4 31 10.8 WNW 9 20 5 11 1015.5 1014.3 0.0
13/09:00am 27.6 24.8 11.2 36 9.4 NW 17 26 9 14 1015.8 1014.6 0.0
13/08:30am 25.6 23.7 11.7 42 8.0 N 13 22 7 12 1016.0 1014.8 0.0
13/08:00am 25.0 23.7 12.6 46 7.2 N 11 17 6 9 1016.1 1014.9 0.0
13/07:30am 23.7 23.2 12.0 48 6.7 NNW 6 11 3 6 1016.3 1015.1 0.0
13/07:00am 22.7 23.3 12.0 50 6.1 CALM 0 4 0 2 1016.0 1014.8 0.0
13/06:30am 20.8 19.8 8.8 46 6.4 S 4 9 2 5 1015.9 1014.7 0.0
13/06:00am 18.9 17.2 8.3 50 5.5 SW 7 20 4 11 1015.4 1014.2 0.0
13/05:30am 18.8 17.4 7.3 47 5.9 N 4 6 2 3 1013.9 1012.7 0.0
13/05:00am 18.5 17.7 8.2 51 5.4 WSW 2 2 1 1 1013.7 1012.5 0.0
13/04:30am 18.8 18.2 7.3 47 5.9 CALM 0 0 0 0 1013.4 1012.2 0.0
13/04:00am 19.5 18.4 6.9 44 6.4 N 2 6 1 3 1013.2 1011.9 0.0
13/03:30am 20.3 18.3 6.3 40 7.1 N 6 7 3 4 1012.9 1011.6 0.0
13/03:00am 21.0 18.3 5.4 36 7.8 N 9 11 5 6 1012.8 1011.5 0.0
13/02:30am 21.4 18.6 5.3 35 8.1 NNW 9 13 5 7 1013.0 1011.7 0.0
13/02:00am 22.2 19.8 4.3 31 8.8 N 6 7 3 4 1013.1 1011.8 0.0
13/01:30am 23.4 20.5 4.4 29 9.5 N 9 15 5 8 1013.0 1011.7 0.0
13/01:00am 23.8 20.7 3.7 27 9.9 NNW 9 15 5 8 1013.3 1012.1 0.0
13/12:30am 24.3 21.1 3.0 25 10.4 NNW 9 17 5 9 1013.5 1012.3 0.0
13/12:00am 24.6 21.2 3.8 26 10.3 NNW 11 15 6 8 1013.4 1012.2 0.0
 
Date/Time
EST
Temp
°C
App
Temp
°C
Dew
Point
°C
Rel
Hum
%
Delta-T
°C
Wind Press
QNH
hPa
Press
MSL
hPa
Rain since
9am
mm
Dir  Spd
km/h
Gust
km/h
Spd
kts
Gust
kts
12/11:30pm 25.4 22.0 4.0 25 10.7 N 11 26 6 14 1013.4 1012.2 0.0

Other formats

Comma delimited format used in spreadsheet applications
http://www.bom.gov.au/fwo/IDQ60801/IDQ60801.94396.axf

JavaScript Object Notation format (JSON) in row-major order
http://www.bom.gov.au/fwo/IDQ60801/IDQ60801.94396.json

Data quality

Most of these data are generated automatically and are frequently updated. Quality checks on data are not normally performed. It is possible for incorrect values to appear. Refer to information at About Latest Weather Observations and please check the disclaimer before using these data.